Battle Point — NMBY — position and weather

sailwx.info

Track history (hours):
 
Tides and Currents Weather Stations Pressure Air Temp Water Temp Dewpoint Dewpoint Depression Visibility Wind Speed Wind Dir Waves Ship Positions

Battle Point

Last reported at 2015-Jan-29 20:34 UTC. Time now 2015-Jan-30 06:30 UTC.
Position N 47°47' W 122°43'.

Length 57 m; draft 3.2 m.

MMSI: 369970254.

Date/timePositionNaut miles runAvg speedWind from/ knotsBaromVisibWave heightAir tempDewpointWater temp
2015-Jan-29 20:34N 47°47' W 122°43'10 9.5
2015-Jan-29 19:33N 47°56' W 122°38'8 8.0
2015-Jan-29 18:33N 47°52' W 122°28'8 8.2
2015-Jan-29 17:33N 47°44' W 122°30'5 4.8
2015-Jan-29 16:30N 47°42' W 122°37'3 0.2
2015-Jan-28 22:33N 47°39' W 122°36'6 5.8
2015-Jan-28 21:33N 47°34' W 122°32'0 0.0
2015-Jan-28 17:17N 47°34' W 122°32'5 7.0
2015-Jan-28 16:33N 47°38' W 122°35'4 0.2
2015-Jan-27 20:31N 47°42' W 122°37'7 7.5
2015-Jan-27 19:33N 47°45' W 122°27'1010.5
2015-Jan-27 18:33N 47°55' W 122°31'6 5.7
2015-Jan-27 17:33N 47°52' W 122°37'8 8.1
2015-Jan-27 16:33N 47°45' W 122°45'  
2015-Jan-24 05:17N 47°44' W 122°44'4 5.1
2015-Jan-24 04:33N 47°48' W 122°42'7 7.3
2015-Jan-24 03:34N 47°54' W 122°36'1110.1
2015-Jan-24 02:31N 48°04' W 122°40'1211.0
2015-Jan-24 01:28N 48°14' W 122°49'1110.8
2015-Jan-24 00:29N 48°24' W 122°45'1010.7
2015-Jan-23 23:33N 48°34' W 122°45'1010.5
2015-Jan-23 22:33N 48°44' W 122°47'1211.6
2015-Jan-23 21:34N 48°50' W 123°01'1211.7
2015-Jan-23 20:33N 48°58' W 123°15'1111.3
2015-Jan-23 19:34N 49°04' W 123°29'1010.3
2015-Jan-23 18:34N 49°11' W 123°41'1110.5
2015-Jan-23 17:33N 49°15' W 123°56'8 7.2
2015-Jan-23 16:24N 49°16' W 124°09'  
Track history (hours):
 
Tides and Currents Weather Stations Pressure Air Temp Water Temp Dewpoint Dewpoint Depression Visibility Wind Speed Wind Dir Waves Ship Positions

Battle Point

Last reported at 2015-Jan-29 20:34 UTC. Time now 2015-Jan-30 06:30 UTC.
Position N 47°47' W 122°43'.

Length 57 m; draft 3.2 m.

MMSI: 369970254.

Date/timePositionNaut miles runAvg speedWind from/ knotsBaromVisibWave heightAir tempDewpointWater temp
2015-Jan-29 20:34N 47°47' W 122°43'10 9.5
2015-Jan-29 19:33N 47°56' W 122°38'8 8.0
2015-Jan-29 18:33N 47°52' W 122°28'8 8.2
2015-Jan-29 17:33N 47°44' W 122°30'5 4.8
2015-Jan-29 16:30N 47°42' W 122°37'3 0.2
2015-Jan-28 22:33N 47°39' W 122°36'6 5.8
2015-Jan-28 21:33N 47°34' W 122°32'0 0.0
2015-Jan-28 17:17N 47°34' W 122°32'5 7.0
2015-Jan-28 16:33N 47°38' W 122°35'4 0.2
2015-Jan-27 20:31N 47°42' W 122°37'7 7.5
2015-Jan-27 19:33N 47°45' W 122°27'1010.5
2015-Jan-27 18:33N 47°55' W 122°31'6 5.7
2015-Jan-27 17:33N 47°52' W 122°37'8 8.1
2015-Jan-27 16:33N 47°45' W 122°45'  
2015-Jan-24 05:17N 47°44' W 122°44'4 5.1
2015-Jan-24 04:33N 47°48' W 122°42'7 7.3
2015-Jan-24 03:34N 47°54' W 122°36'1110.1
2015-Jan-24 02:31N 48°04' W 122°40'1211.0
2015-Jan-24 01:28N 48°14' W 122°49'1110.8
2015-Jan-24 00:29N 48°24' W 122°45'1010.7
2015-Jan-23 23:33N 48°34' W 122°45'1010.5
2015-Jan-23 22:33N 48°44' W 122°47'1211.6
2015-Jan-23 21:34N 48°50' W 123°01'1211.7
2015-Jan-23 20:33N 48°58' W 123°15'1111.3
2015-Jan-23 19:34N 49°04' W 123°29'1010.3
2015-Jan-23 18:34N 49°11' W 123°41'1110.5
2015-Jan-23 17:33N 49°15' W 123°56'8 7.2
2015-Jan-23 16:24N 49°16' W 124°09'  

Dump ship's entire track history